Time;durP1;ratioP1;P1;durP2;ratioP2;P2;SDS_P1;SDS_P2;PMS_P1;PMS_P2;Temp;Humidity;BMP_temperature;BMP_pressure;BME280_temperature;BME280_humidity;BME280_pressure;Samples;Min_cycle;Max_cycle;Signal;HPM_P1;HPM_P2
2021/05/13 00:00:55;;;;;;;40.58;23.33;;;9.90;99.90;;;;;;5047897;28;20021;-75
2021/05/13 00:03:21;;;;;;;38.15;23.23;;;10.00;99.90;;;;;;5047888;28;20049;-75
2021/05/13 00:05:46;;;;;;;40.13;24.30;;;10.00;99.90;;;;;;5049207;28;20543;-74
2021/05/13 00:08:12;;;;;;;38.13;23.27;;;10.00;99.90;;;;;;5047668;28;20487;-74
2021/05/13 00:10:38;;;;;;;35.05;23.15;;;10.00;99.90;;;;;;5048300;28;20556;-75
2021/05/13 00:13:06;;;;;;;37.08;22.95;;;10.00;99.90;;;;;;5050082;28;20119;-75
2021/05/13 00:15:36;;;;;;;33.55;21.10;;;10.00;99.90;;;;;;5049499;28;20041;-75
2021/05/13 00:18:02;;;;;;;33.53;21.40;;;10.00;99.90;;;;;;5049097;28;20026;-75
2021/05/13 00:20:33;;;;;;;30.70;19.42;;;10.00;99.90;;;;;;5049095;28;20040;-75
2021/05/13 00:22:59;;;;;;;33.80;20.98;;;10.10;99.90;;;;;;5048828;28;20025;-75
2021/05/13 00:25:25;;;;;;;32.78;20.00;;;10.00;99.90;;;;;;5048775;28;20394;-75
2021/05/13 00:27:51;;;;;;;32.03;19.30;;;10.00;99.90;;;;;;5048213;28;20032;-75
2021/05/13 00:30:19;;;;;;;32.60;20.88;;;10.10;99.90;;;;;;5047798;28;20074;-75
2021/05/13 00:32:45;;;;;;;33.95;20.30;;;10.10;99.90;;;;;;5048866;28;20031;-75
2021/05/13 00:35:13;;;;;;;36.53;21.67;;;10.10;99.90;;;;;;5048733;28;20124;-75
2021/05/13 00:37:38;;;;;;;37.55;21.23;;;10.00;99.90;;;;;;5048875;28;20045;-75
2021/05/13 00:40:06;;;;;;;34.38;21.65;;;10.00;99.90;;;;;;5048859;28;20036;-75
2021/05/13 00:42:32;;;;;;;36.80;22.20;;;10.00;99.90;;;;;;5047589;28;20403;-75
2021/05/13 00:44:57;;;;;;;34.92;20.80;;;10.00;99.90;;;;;;5047424;28;20059;-75
2021/05/13 00:47:25;;;;;;;34.78;21.70;;;10.10;99.90;;;;;;5047521;28;20036;-75
2021/05/13 00:49:51;;;;;;;36.22;22.73;;;10.10;99.90;;;;;;5047377;28;20037;-75
2021/05/13 00:52:19;;;;;;;37.90;22.02;;;10.10;99.90;;;;;;5049003;28;20472;-75
2021/05/13 00:54:45;;;;;;;33.47;22.35;;;10.10;99.90;;;;;;5047412;28;20036;-76
2021/05/13 00:57:12;;;;;;;36.20;22.13;;;10.10;99.90;;;;;;5048507;28;20032;-75
2021/05/13 00:59:40;;;;;;;34.20;22.42;;;10.10;99.90;;;;;;5047401;28;20021;-75
2021/05/13 01:02:05;;;;;;;32.92;22.20;;;10.00;99.90;;;;;;5048634;28;20029;-75
2021/05/13 01:04:31;;;;;;;32.55;20.73;;;10.00;99.90;;;;;;5052323;28;20131;-75
2021/05/13 01:06:57;;;;;;;32.75;22.45;;;10.00;99.90;;;;;;5052225;28;20028;-75
2021/05/13 01:09:24;;;;;;;37.08;22.30;;;10.00;99.90;;;;;;5052177;28;20527;-75
2021/05/13 01:11:53;;;;;;;33.60;21.63;;;10.00;99.90;;;;;;5050954;28;20482;-75
2021/05/13 01:14:25;;;;;;;34.92;21.13;;;10.00;99.90;;;;;;5052145;28;20017;-75
2021/05/13 01:19:29;;;;;;;35.42;22.17;;;9.90;99.90;;;;;;5052424;28;20025;-75
2021/05/13 01:21:55;;;;;;;34.28;21.48;;;10.00;99.90;;;;;;5051929;28;20116;-75
2021/05/13 01:24:22;;;;;;;31.58;22.10;;;10.00;99.90;;;;;;5050685;28;20025;-75
2021/05/13 01:26:48;;;;;;;35.38;24.30;;;9.90;99.90;;;;;;5050622;28;20028;-75
2021/05/13 01:29:17;;;;;;;36.90;23.80;;;9.90;99.90;;;;;;5051815;28;20033;-75
2021/05/13 01:31:43;;;;;;;39.78;24.45;;;9.90;99.90;;;;;;5051838;28;20108;-74
2021/05/13 01:34:09;;;;;;;40.70;25.10;;;9.90;99.90;;;;;;5052004;28;20060;-75
2021/05/13 01:36:35;;;;;;;38.75;23.70;;;9.90;99.90;;;;;;5051789;28;20021;-75
2021/05/13 01:39:04;;;;;;;40.97;24.33;;;9.80;99.90;;;;;;5051598;28;20079;-74
2021/05/13 01:41:29;;;;;;;38.90;23.08;;;9.80;99.90;;;;;;5049982;28;20032;-74
2021/05/13 01:43:55;;;;;;;42.63;25.92;;;9.80;99.90;;;;;;5051447;28;20037;-75
2021/05/13 01:46:20;;;;;;;38.95;24.50;;;9.80;99.90;;;;;;5051454;28;20036;-75
2021/05/13 01:48:46;;;;;;;43.08;24.67;;;9.80;99.90;;;;;;5051235;28;20025;-75
2021/05/13 01:51:12;;;;;;;40.30;26.23;;;9.80;99.90;;;;;;5051251;28;20021;-75
2021/05/13 01:53:41;;;;;;;43.65;25.05;;;9.80;99.90;;;;;;5051133;28;20024;-75
2021/05/13 01:56:08;;;;;;;41.92;24.30;;;9.80;99.90;;;;;;5049481;28;20056;-75
2021/05/13 01:58:33;;;;;;;39.55;24.77;;;9.80;99.90;;;;;;5049879;28;20025;-75
2021/05/13 02:00:59;;;;;;;39.20;23.92;;;9.70;99.90;;;;;;5049766;28;20082;-75
2021/05/13 02:03:26;;;;;;;35.33;22.88;;;9.80;99.90;;;;;;5049885;28;20029;-75
2021/05/13 02:05:51;;;;;;;39.95;24.20;;;9.80;99.90;;;;;;5051074;28;20398;-75
2021/05/13 02:08:17;;;;;;;36.58;23.67;;;9.80;99.90;;;;;;5049904;28;20027;-75
2021/05/13 02:10:42;;;;;;;38.70;23.52;;;9.80;99.90;;;;;;5050929;28;20044;-75
2021/05/13 02:13:08;;;;;;;40.20;24.05;;;9.80;99.90;;;;;;5051030;28;20475;-75
2021/05/13 02:15:34;;;;;;;37.05;22.45;;;9.80;99.90;;;;;;5049744;28;20021;-75
2021/05/13 02:17:59;;;;;;;37.85;23.05;;;9.80;99.90;;;;;;5050869;28;20037;-75
2021/05/13 02:20:25;;;;;;;37.60;24.80;;;9.70;99.90;;;;;;5051362;28;20509;-75
2021/05/13 02:22:52;;;;;;;38.80;23.13;;;9.70;99.90;;;;;;5050769;28;20492;-75
2021/05/13 02:25:17;;;;;;;35.97;22.75;;;9.80;99.90;;;;;;5049155;28;20021;-75
2021/05/13 02:27:43;;;;;;;38.38;23.75;;;9.70;99.90;;;;;;5050760;28;20446;-75
2021/05/13 02:30:11;;;;;;;38.97;24.65;;;9.70;99.90;;;;;;5050525;28;20028;-74
2021/05/13 02:32:37;;;;;;;39.20;23.58;;;9.70;99.90;;;;;;5050624;28;20032;-75
2021/05/13 02:35:05;;;;;;;44.08;25.73;;;9.70;99.90;;;;;;5049148;28;20030;-75
2021/05/13 02:37:30;;;;;;;41.28;25.45;;;9.70;99.90;;;;;;5050470;28;20060;-74
2021/05/13 02:39:56;;;;;;;38.13;24.10;;;9.60;99.90;;;;;;5050703;28;20129;-75
2021/05/13 02:42:22;;;;;;;37.25;24.88;;;9.60;99.90;;;;;;5050649;28;20029;-75
2021/05/13 02:44:47;;;;;;;35.80;22.75;;;9.60;99.90;;;;;;5050569;28;20104;-75
2021/05/13 02:47:13;;;;;;;40.75;24.80;;;9.60;99.90;;;;;;5050099;28;20429;-75
2021/05/13 02:49:38;;;;;;;42.63;22.92;;;9.60;99.90;;;;;;5049069;28;20025;-75
2021/05/13 02:52:04;;;;;;;38.95;23.42;;;9.60;99.90;;;;;;5050079;28;20025;-75
2021/05/13 02:54:30;;;;;;;37.50;24.23;;;9.60;99.90;;;;;;5050080;28;20029;-75
2021/05/13 02:56:56;;;;;;;40.45;23.40;;;9.60;99.90;;;;;;5048880;28;20033;-76
2021/05/13 02:59:28;;;;;;;35.05;23.27;;;9.60;99.90;;;;;;5050032;28;20090;-75
2021/05/13 03:01:54;;;;;;;34.72;23.15;;;9.60;99.90;;;;;;5048681;28;20056;-76
2021/05/13 03:04:19;;;;;;;37.83;21.63;;;9.60;99.90;;;;;;5049915;28;20043;-75
2021/05/13 03:06:45;;;;;;;37.35;21.98;;;9.60;99.90;;;;;;5049923;28;20025;-75
2021/05/13 03:09:10;;;;;;;35.80;22.58;;;9.60;99.90;;;;;;5050044;28;20028;-75
2021/05/13 03:11:36;;;;;;;35.53;21.73;;;9.60;99.90;;;;;;5048724;28;20074;-75
2021/05/13 03:14:03;;;;;;;33.17;20.65;;;9.60;99.90;;;;;;5050432;28;20024;-75
2021/05/13 03:16:29;;;;;;;33.10;21.00;;;9.60;99.90;;;;;;5048569;28;20025;-75
2021/05/13 03:18:56;;;;;;;31.00;20.15;;;9.60;99.90;;;;;;5048458;28;20029;-75
2021/05/13 03:24:03;;;;;;;33.53;21.17;;;9.60;99.90;;;;;;5050115;28;20032;-75
2021/05/13 03:27:38;;;;;;;35.53;20.83;;;9.50;99.90;;;;;;5049383;28;20059;-75
2021/05/13 03:29:16;;;;;;;34.95;21.52;;;9.50;99.90;;;;;;5045348;28;20391;-75
2021/05/13 03:31:42;;;;;;;31.35;19.02;;;9.60;99.90;;;;;;5048312;28;20500;-74
2021/05/13 03:34:07;;;;;;;32.30;20.60;;;9.60;99.90;;;;;;5049593;28;20103;-75
2021/05/13 03:36:33;;;;;;;32.30;19.10;;;9.50;99.90;;;;;;5048177;28;20028;-74
2021/05/13 03:39:01;;;;;;;26.90;17.80;;;9.50;99.90;;;;;;5048254;28;20478;-75
2021/05/13 03:41:27;;;;;;;27.98;18.38;;;9.50;99.90;;;;;;5049470;28;20494;-75
2021/05/13 03:43:52;;;;;;;31.95;19.88;;;9.50;99.90;;;;;;5049509;28;20075;-75
2021/05/13 03:46:18;;;;;;;32.88;20.60;;;9.50;99.90;;;;;;5049130;28;20028;-74
2021/05/13 03:48:43;;;;;;;30.38;19.40;;;9.50;99.90;;;;;;5049175;28;20074;-74
2021/05/13 03:51:09;;;;;;;32.38;19.33;;;9.50;99.90;;;;;;5049220;28;20502;-75
2021/05/13 03:53:34;;;;;;;33.28;21.08;;;9.50;99.90;;;;;;5049338;28;20021;-75
2021/05/13 03:56:00;;;;;;;32.03;20.30;;;9.50;99.90;;;;;;5075536;22;20041;-75
2021/05/13 03:58:30;;;;;;;29.60;18.83;;;9.50;99.90;;;;;;5048728;28;20025;-75
2021/05/13 04:03:21;;;;;;;31.60;18.05;;;9.50;99.90;;;;;;5049613;28;20386;-75
2021/05/13 04:05:47;;;;;;;28.48;18.85;;;9.50;99.90;;;;;;5049476;28;20387;-75
2021/05/13 04:08:13;;;;;;;33.42;20.27;;;9.50;99.90;;;;;;5049572;28;20104;-75
2021/05/13 04:10:40;;;;;;;30.52;19.42;;;9.50;99.90;;;;;;5049437;28;20031;-75
2021/05/13 04:13:08;;;;;;;28.73;19.58;;;9.50;99.90;;;;;;5049137;28;20032;-74
2021/05/13 04:15:33;;;;;;;31.77;19.38;;;9.50;99.90;;;;;;5048724;28;20073;-75
2021/05/13 04:17:59;;;;;;;26.73;19.15;;;9.50;99.90;;;;;;5047649;28;20053;-75
2021/05/13 04:20:24;;;;;;;30.45;19.02;;;9.60;99.90;;;;;;5049185;28;20036;-75
2021/05/13 04:22:50;;;;;;;32.08;19.25;;;9.50;99.90;;;;;;5049251;28;20031;-75
2021/05/13 04:25:15;;;;;;;28.42;18.30;;;9.60;99.90;;;;;;5047996;28;20520;-75
2021/05/13 04:27:41;;;;;;;33.60;21.10;;;9.60;99.90;;;;;;5047711;28;20058;-74
2021/05/13 04:30:07;;;;;;;34.28;21.38;;;9.60;99.90;;;;;;5047709;28;20026;-75
2021/05/13 04:32:33;;;;;;;37.08;21.05;;;9.60;99.90;;;;;;5047856;28;20053;-75
2021/05/13 04:34:59;;;;;;;31.95;19.38;;;9.60;99.90;;;;;;5048998;28;20048;-75
2021/05/13 04:37:24;;;;;;;28.85;20.23;;;9.70;99.90;;;;;;5048009;28;20474;-75
2021/05/13 04:39:50;;;;;;;34.25;21.23;;;9.70;99.90;;;;;;5052733;28;20031;-75
2021/05/13 04:42:15;;;;;;;35.08;21.90;;;9.70;99.90;;;;;;5051497;28;20124;-75
2021/05/13 04:44:41;;;;;;;35.95;22.67;;;9.70;99.90;;;;;;5051483;28;20029;-75
2021/05/13 04:47:27;;;;;;;32.13;21.50;;;9.70;99.90;;;;;;5052792;28;20025;-75
2021/05/13 04:49:54;;;;;;;33.25;21.60;;;9.70;99.90;;;;;;5053237;28;20043;-75
2021/05/13 04:52:23;;;;;;;34.97;22.25;;;9.70;99.90;;;;;;5052933;28;20028;-75
2021/05/13 04:54:55;;;;;;;36.75;22.48;;;9.80;99.90;;;;;;5051779;28;20036;-75
2021/05/13 04:57:20;;;;;;;37.55;24.00;;;9.80;99.90;;;;;;5052642;28;20029;-75
2021/05/13 04:59:46;;;;;;;35.58;22.83;;;9.80;99.90;;;;;;5051277;28;20478;-75
2021/05/13 05:02:12;;;;;;;38.03;23.73;;;9.80;99.90;;;;;;5052591;28;20036;-75
2021/05/13 05:04:38;;;;;;;34.92;22.20;;;9.80;99.90;;;;;;5052921;28;20051;-75
2021/05/13 05:07:04;;;;;;;37.88;22.83;;;9.90;99.90;;;;;;5051717;28;20021;-76
2021/05/13 05:09:29;;;;;;;37.42;23.13;;;9.90;99.90;;;;;;5052436;28;20033;-76
2021/05/13 05:11:56;;;;;;;34.42;21.98;;;9.90;99.90;;;;;;5052799;28;20021;-74
2021/05/13 05:14:21;;;;;;;33.47;21.70;;;9.90;99.90;;;;;;5052648;28;20025;-76
2021/05/13 05:16:47;;;;;;;26.88;20.35;;;9.90;99.90;;;;;;5052319;28;20021;-76
2021/05/13 05:19:12;;;;;;;32.65;21.67;;;10.00;99.90;;;;;;5052736;28;20025;-75
2021/05/13 05:21:38;;;;;;;32.72;21.67;;;10.00;99.90;;;;;;5052458;28;20025;-75
2021/05/13 05:24:04;;;;;;;31.35;21.60;;;10.10;99.90;;;;;;5052719;28;20112;-76
2021/05/13 05:26:30;;;;;;;31.45;21.45;;;10.10;99.90;;;;;;5052495;28;20051;-76
2021/05/13 05:28:56;;;;;;;33.08;20.23;;;10.10;99.90;;;;;;5052961;28;20029;-76
2021/05/13 05:31:21;;;;;;;30.77;21.02;;;10.10;99.90;;;;;;5052706;28;20025;-75
2021/05/13 05:33:47;;;;;;;33.50;21.33;;;10.20;99.90;;;;;;5052885;28;20024;-75
2021/05/13 05:36:12;;;;;;;31.35;21.63;;;10.20;99.90;;;;;;5053734;28;20047;-76
2021/05/13 05:38:38;;;;;;;28.92;20.02;;;10.20;99.90;;;;;;5051327;28;20017;-75
2021/05/13 05:41:04;;;;;;;29.38;20.67;;;10.30;99.90;;;;;;5051366;28;20024;-75
2021/05/13 05:43:29;;;;;;;28.27;19.05;;;10.30;99.90;;;;;;5052844;28;20025;-75
2021/05/13 05:45:55;;;;;;;29.50;19.80;;;10.40;99.90;;;;;;5052345;28;20029;-75
2021/05/13 05:48:21;;;;;;;26.27;17.98;;;10.50;99.90;;;;;;5050581;28;20465;-75
2021/05/13 05:50:46;;;;;;;29.40;19.65;;;10.50;99.90;;;;;;5051068;28;20074;-75
2021/05/13 05:53:12;;;;;;;25.25;19.27;;;10.40;99.90;;;;;;5050874;28;20022;-75
2021/05/13 05:55:39;;;;;;;24.83;17.55;;;10.50;99.90;;;;;;5051787;28;20024;-76
2021/05/13 05:58:06;;;;;;;27.02;18.17;;;10.50;99.90;;;;;;5051054;28;20036;-76
2021/05/13 06:00:32;;;;;;;29.48;18.92;;;10.60;99.90;;;;;;5052131;28;20025;-75
2021/05/13 06:02:58;;;;;;;25.45;17.40;;;10.60;99.90;;;;;;5052005;28;20568;-75
2021/05/13 06:05:24;;;;;;;28.35;19.05;;;10.60;99.90;;;;;;5051226;28;20036;-75
2021/05/13 06:07:50;;;;;;;26.17;17.40;;;10.60;99.90;;;;;;5051806;28;20024;-75
2021/05/13 06:10:16;;;;;;;22.73;17.60;;;10.60;99.90;;;;;;5051882;28;20083;-75
2021/05/13 06:12:43;;;;;;;28.70;18.52;;;10.70;99.90;;;;;;5051615;28;20017;-75
2021/05/13 06:15:12;;;;;;;23.25;16.33;;;10.70;99.90;;;;;;5052230;28;20021;-75
2021/05/13 06:17:38;;;;;;;23.25;16.73;;;10.80;99.90;;;;;;5051853;28;20052;-75
2021/05/13 06:20:05;;;;;;;25.88;16.58;;;10.80;99.90;;;;;;5051680;28;20029;-75
2021/05/13 06:22:31;;;;;;;22.50;15.52;;;10.80;99.90;;;;;;5051574;28;20024;-75
2021/05/13 06:24:58;;;;;;;22.65;14.93;;;10.80;99.90;;;;;;5051650;28;20025;-75
2021/05/13 06:27:23;;;;;;;22.40;15.95;;;10.80;99.90;;;;;;5051315;28;20029;-75
2021/05/13 06:29:50;;;;;;;24.83;16.77;;;10.80;99.90;;;;;;5051732;28;20021;-75
2021/05/13 06:32:16;;;;;;;25.92;17.67;;;10.80;99.90;;;;;;5051510;28;20024;-75
2021/05/13 06:34:42;;;;;;;24.17;16.55;;;10.80;99.90;;;;;;5050998;28;20025;-75
2021/05/13 06:37:08;;;;;;;23.27;16.50;;;10.80;99.90;;;;;;5051053;28;20101;-75
2021/05/13 06:39:33;;;;;;;24.70;16.38;;;10.80;99.90;;;;;;5051914;28;20036;-75
2021/05/13 06:42:04;;;;;;;23.77;17.23;;;10.80;99.90;;;;;;5050684;28;20032;-75
2021/05/13 06:44:30;;;;;;;22.45;16.00;;;10.90;99.90;;;;;;5050831;28;20025;-75
2021/05/13 06:46:56;;;;;;;20.85;15.77;;;10.90;99.90;;;;;;5050868;28;20100;-75
2021/05/13 06:49:22;;;;;;;20.88;15.07;;;10.90;99.90;;;;;;5051281;28;20575;-75
2021/05/13 06:51:47;;;;;;;26.17;16.00;;;10.90;99.90;;;;;;5049360;28;20021;-75
2021/05/13 06:54:13;;;;;;;21.67;14.15;;;10.90;99.90;;;;;;5049151;28;20022;-75
2021/05/13 06:56:40;;;;;;;22.40;15.98;;;10.90;99.90;;;;;;5048916;28;20044;-75
2021/05/13 06:59:07;;;;;;;21.77;15.55;;;11.00;99.90;;;;;;5050464;28;20464;-75
2021/05/13 07:01:34;;;;;;;23.92;15.32;;;11.00;99.90;;;;;;5050153;28;20201;-74
2021/05/13 07:04:00;;;;;;;22.92;14.82;;;11.10;99.90;;;;;;5050815;28;20021;-74
2021/05/13 07:06:26;;;;;;;20.98;15.25;;;11.10;99.90;;;;;;5050507;28;20025;-74
2021/05/13 07:08:51;;;;;;;22.92;15.23;;;11.10;99.90;;;;;;5049074;28;20477;-74
2021/05/13 07:11:17;;;;;;;23.38;15.02;;;11.10;99.90;;;;;;5050414;28;20452;-74
2021/05/13 07:13:42;;;;;;;20.45;15.00;;;11.00;99.90;;;;;;5048867;28;20029;-74
2021/05/13 07:16:08;;;;;;;22.70;15.52;;;11.00;99.90;;;;;;5049981;28;20490;-74
2021/05/13 07:18:33;;;;;;;23.70;15.80;;;11.10;99.90;;;;;;5050189;28;20025;-74
2021/05/13 07:20:59;;;;;;;22.60;16.27;;;11.20;99.90;;;;;;5049915;28;20021;-74
2021/05/13 07:23:24;;;;;;;23.83;16.55;;;11.20;99.90;;;;;;5049959;28;20056;-75
2021/05/13 07:25:50;;;;;;;24.67;17.55;;;11.30;99.90;;;;;;5048463;28;20055;-74
2021/05/13 07:28:16;;;;;;;23.73;15.80;;;11.30;99.90;;;;;;5049651;28;20390;-75
2021/05/13 07:30:42;;;;;;;22.17;14.95;;;11.30;99.90;;;;;;5049862;28;20052;-75
2021/05/13 07:33:09;;;;;;;20.27;14.95;;;11.40;99.90;;;;;;5049572;28;20017;-75
2021/05/13 07:35:34;;;;;;;22.33;14.88;;;11.40;99.90;;;;;;5048263;28;20025;-75
2021/05/13 07:38:00;;;;;;;20.17;15.23;;;11.50;99.90;;;;;;5048383;28;20498;-75
2021/05/13 07:40:27;;;;;;;21.17;14.35;;;11.50;99.90;;;;;;5049866;28;20462;-74
2021/05/13 07:42:53;;;;;;;19.92;14.05;;;11.60;99.90;;;;;;5048246;28;20036;-74
2021/05/13 07:45:18;;;;;;;19.83;14.05;;;11.60;99.90;;;;;;5049454;28;20016;-75
2021/05/13 07:47:45;;;;;;;19.90;13.57;;;11.60;99.90;;;;;;5049330;28;20039;-75
2021/05/13 07:50:13;;;;;;;19.50;13.45;;;11.70;99.90;;;;;;5049765;28;20076;-75
2021/05/13 07:52:40;;;;;;;19.52;14.60;;;11.70;99.90;;;;;;5048053;28;20021;-74
2021/05/13 07:55:06;;;;;;;20.33;13.70;;;11.80;99.90;;;;;;5049366;28;20021;-75
2021/05/13 07:57:32;;;;;;;17.73;12.40;;;11.70;99.90;;;;;;5049352;28;20029;-75
2021/05/13 07:59:57;;;;;;;17.75;12.82;;;11.80;99.90;;;;;;5049581;28;20496;-75
2021/05/13 08:02:44;;;;;;;;;;;;;;;;;;;;;
2021/05/13 08:05:11;;;;;;;15.50;11.02;;;11.90;99.90;;;;;;5049703;28;20029;-75
2021/05/13 08:07:36;;;;;;;14.63;10.85;;;12.00;99.90;;;;;;5048036;28;20056;-76
2021/05/13 08:10:03;;;;;;;19.15;12.20;;;11.80;99.90;;;;;;5049251;28;20431;-75
2021/05/13 08:12:29;;;;;;;17.88;12.15;;;12.00;99.90;;;;;;5049862;28;20021;-75
2021/05/13 08:14:55;;;;;;;15.77;10.75;;;12.10;99.90;;;;;;5053486;28;20496;-76
2021/05/13 08:17:20;;;;;;;16.90;11.20;;;12.10;99.90;;;;;;5053435;28;20529;-75
2021/05/13 08:19:46;;;;;;;13.57;10.15;;;12.20;99.90;;;;;;5055260;28;20029;-75
2021/05/13 08:22:11;;;;;;;17.10;10.70;;;12.30;99.90;;;;;;5053933;28;20032;-75
2021/05/13 08:24:37;;;;;;;14.55;10.10;;;12.40;99.90;;;;;;5054040;28;20382;-75
2021/05/13 08:27:02;;;;;;;13.75;9.95;;;12.40;99.90;;;;;;5053204;28;20036;-75
2021/05/13 08:29:29;;;;;;;12.52;9.43;;;12.40;99.90;;;;;;5052998;28;20033;-75
2021/05/13 08:31:55;;;;;;;13.65;9.27;;;12.40;99.90;;;;;;5051748;28;20121;-75
2021/05/13 08:34:21;;;;;;;11.63;7.93;;;12.70;99.90;;;;;;5053263;28;20472;-75
2021/05/13 08:36:46;;;;;;;11.85;8.35;;;12.80;99.90;;;;;;5053219;28;20032;-75
2021/05/13 08:39:12;;;;;;;14.93;9.52;;;13.00;99.90;;;;;;5053236;28;20021;-75
2021/05/13 08:41:37;;;;;;;13.00;8.90;;;13.00;99.90;;;;;;5052876;28;20029;-75
2021/05/13 08:44:07;;;;;;;11.52;8.27;;;13.10;99.90;;;;;;5053005;28;20029;-75
2021/05/13 08:46:36;;;;;;;12.43;8.85;;;13.20;99.90;;;;;;5051740;28;20036;-75
2021/05/13 08:49:02;;;;;;;9.85;7.47;;;13.40;99.90;;;;;;5052784;28;20025;-75
2021/05/13 08:51:28;;;;;;;13.30;8.18;;;13.40;99.90;;;;;;5053092;28;20104;-75
2021/05/13 08:53:55;;;;;;;10.85;7.88;;;13.50;99.90;;;;;;5052731;28;20097;-75
2021/05/13 08:56:28;;;;;;;12.38;7.75;;;13.50;99.90;;;;;;5052492;28;20490;-75
2021/05/13 08:58:56;;;;;;;14.13;7.80;;;13.40;99.90;;;;;;5051730;28;20536;-75
2021/05/13 09:01:22;;;;;;;9.77;7.40;;;13.60;99.90;;;;;;5051414;28;20120;-75
2021/05/13 09:03:50;;;;;;;10.38;7.10;;;13.80;99.90;;;;;;5052620;28;20033;-74
2021/05/13 09:06:29;;;;;;;9.60;6.55;;;14.00;99.90;;;;;;5051074;28;20029;-75
2021/05/13 09:09:11;;;;;;;8.65;6.43;;;13.90;99.90;;;;;;5052364;28;20029;-75
2021/05/13 09:11:47;;;;;;;8.00;6.22;;;14.00;99.90;;;;;;5052654;28;20017;-75
2021/05/13 09:14:19;;;;;;;8.82;6.88;;;14.40;99.90;;;;;;5052799;28;20085;-75
2021/05/13 09:16:47;;;;;;;10.05;6.40;;;14.60;99.90;;;;;;5051730;28;20017;-76
2021/05/13 09:19:24;;;;;;;9.38;6.20;;;14.90;99.90;;;;;;5050980;28;20086;-76
2021/05/13 09:22:11;;;;;;;9.70;5.78;;;15.20;99.90;;;;;;5050866;28;20048;-76
2021/05/13 09:24:44;;;;;;;8.40;5.93;;;15.50;99.90;;;;;;5050195;28;20049;-76
2021/05/13 09:27:22;;;;;;;8.00;5.60;;;15.50;99.90;;;;;;5050339;28;20487;-76
2021/05/13 09:30:00;;;;;;;6.43;4.80;;;15.80;99.90;;;;;;5052087;28;20413;-75
2021/05/13 09:32:26;;;;;;;7.78;4.93;;;15.80;99.90;;;;;;5050720;28;20021;-75
2021/05/13 09:34:52;;;;;;;6.72;4.70;;;15.80;99.90;;;;;;5052050;28;20094;-76
2021/05/13 09:37:17;;;;;;;11.60;5.03;;;16.10;99.90;;;;;;5051926;28;20039;-77
2021/05/13 09:39:50;;;;;;;9.23;4.90;;;16.30;99.90;;;;;;5051941;28;20044;-75
2021/05/13 09:42:17;;;;;;;6.22;4.78;;;16.20;99.90;;;;;;5051908;28;20067;-75
2021/05/13 09:44:45;;;;;;;6.20;4.40;;;16.00;99.90;;;;;;5051204;28;20128;-75
2021/05/13 09:47:26;;;;;;;9.70;5.03;;;15.90;99.90;;;;;;5051213;28;20029;-76
2021/05/13 09:49:58;;;;;;;6.05;4.30;;;15.90;99.90;;;;;;5051542;28;20029;-76
2021/05/13 09:52:40;;;;;;;7.20;4.40;;;15.90;99.90;;;;;;5050614;28;20021;-76
2021/05/13 09:55:30;;;;;;;4.97;4.28;;;15.80;99.90;;;;;;5051597;28;20255;-75
2021/05/13 09:58:06;;;;;;;6.25;4.45;;;15.60;99.90;;;;;;5069677;22;20056;-73
2021/05/13 10:00:33;;;;;;;6.07;3.97;;;15.60;99.90;;;;;;5050449;28;20029;-75
2021/05/13 10:02:59;;;;;;;6.18;4.75;;;15.80;99.90;;;;;;5051923;28;20533;-76
2021/05/13 10:05:25;;;;;;;5.43;3.58;;;15.70;99.90;;;;;;5050298;28;20032;-75
2021/05/13 10:07:51;;;;;;;5.28;4.28;;;15.60;99.90;;;;;;5051548;28;20079;-74
2021/05/13 10:10:17;;;;;;;7.25;4.55;;;15.70;99.90;;;;;;5051165;28;20021;-75
2021/05/13 10:12:44;;;;;;;7.13;4.60;;;15.60;99.90;;;;;;5051515;28;20032;-75
2021/05/13 10:15:11;;;;;;;6.32;4.20;;;15.40;99.90;;;;;;5051522;28;20025;-75
2021/05/13 10:17:41;;;;;;;6.78;4.85;;;15.30;99.90;;;;;;5051228;28;20059;-75
2021/05/13 10:20:08;;;;;;;6.03;4.25;;;15.30;99.90;;;;;;5051547;28;20028;-74
2021/05/13 10:22:35;;;;;;;5.93;4.05;;;15.30;99.90;;;;;;5051109;28;20037;-75
2021/05/13 10:25:21;;;;;;;5.57;4.53;;;15.40;99.90;;;;;;5051435;28;20527;-75
2021/05/13 10:28:00;;;;;;;5.40;3.65;;;15.40;99.90;;;;;;5051301;28;20394;-74
2021/05/13 10:30:31;;;;;;;5.05;4.18;;;15.70;99.90;;;;;;5050958;28;20032;-74
2021/05/13 10:33:05;;;;;;;6.72;3.85;;;16.00;99.90;;;;;;5051271;28;20537;-74
2021/05/13 10:35:31;;;;;;;5.70;4.40;;;16.10;99.90;;;;;;5050180;28;20435;-74
2021/05/13 10:38:00;;;;;;;6.72;3.83;;;15.80;99.90;;;;;;5050875;28;20029;-75
2021/05/13 10:43:05;;;;;;;5.57;3.50;;;15.80;99.90;;;;;;5051018;28;20029;-74
2021/05/13 10:45:37;;;;;;;4.78;3.53;;;15.90;99.90;;;;;;5050720;28;20484;-74
2021/05/13 10:48:17;;;;;;;5.78;3.30;;;16.00;99.90;;;;;;5050650;28;20091;-74
2021/05/13 10:50:55;;;;;;;16.60;4.38;;;16.10;99.90;;;;;;5050970;28;20469;-73
2021/05/13 10:53:48;;;;;;;5.97;4.07;;;15.90;99.90;;;;;;5050720;28;20116;-74
2021/05/13 10:56:27;;;;;;;4.95;3.55;;;15.60;99.90;;;;;;5050644;28;20501;-74
2021/05/13 10:59:03;;;;;;;6.93;4.10;;;15.80;99.90;;;;;;5049445;28;20032;-75
2021/05/13 11:01:28;;;;;;;7.22;4.15;;;16.00;99.90;;;;;;5049160;28;20029;-75
2021/05/13 11:04:24;;;;;;;6.45;4.00;;;16.10;99.90;;;;;;5050480;28;20021;-74
2021/05/13 11:07:00;;;;;;;5.85;3.55;;;16.20;99.90;;;;;;5036688;28;20033;-74
2021/05/13 11:12:35;;;;;;;5.88;3.92;;;16.70;99.90;;;;;;5050521;28;20539;-75
2021/05/13 11:17:49;;;;;;;5.72;3.72;;;16.90;99.90;;;;;;5050557;28;20029;-75
2021/05/13 11:20:52;;;;;;;4.07;3.50;;;16.90;99.90;;;;;;5048690;28;20032;-75
2021/05/13 11:23:21;;;;;;;3.47;2.70;;;17.10;99.90;;;;;;5044819;28;20052;-74
2021/05/13 11:25:55;;;;;;;5.95;3.85;;;17.10;99.90;;;;;;5049277;28;20405;-74
2021/05/13 11:28:26;;;;;;;5.20;3.70;;;17.00;99.90;;;;;;5049883;28;20021;-74
2021/05/13 11:31:06;;;;;;;6.38;4.15;;;16.80;99.90;;;;;;5050088;28;20131;-74
2021/05/13 11:33:52;;;;;;;5.88;4.53;;;16.70;99.90;;;;;;5050155;28;20068;-74
2021/05/13 11:36:27;;;;;;;6.30;4.40;;;16.60;99.90;;;;;;5049514;28;20025;-74
2021/05/13 11:39:07;;;;;;;5.00;4.05;;;16.60;99.90;;;;;;5049662;28;20112;-74
2021/05/13 11:41:33;;;;;;;5.93;4.00;;;16.80;99.90;;;;;;5049584;28;20033;-74
2021/05/13 11:43:58;;;;;;;7.20;4.18;;;16.90;99.90;;;;;;5048218;28;20029;-74
2021/05/13 11:46:27;;;;;;;5.10;3.80;;;17.10;99.90;;;;;;5049177;28;20508;-75
2021/05/13 11:48:53;;;;;;;5.70;4.28;;;17.10;99.90;;;;;;5048042;28;20025;-74
2021/05/13 11:51:26;;;;;;;7.47;4.50;;;17.00;99.90;;;;;;5048200;28;20024;-74
2021/05/13 11:54:00;;;;;;;5.35;3.85;;;16.80;99.90;;;;;;5049706;28;20025;-74
2021/05/13 11:56:27;;;;;;;5.07;3.80;;;16.80;99.90;;;;;;5049861;28;20025;-75
2021/05/13 11:59:00;;;;;;;5.00;3.72;;;16.70;99.90;;;;;;5049619;28;20033;-74
2021/05/13 12:01:28;;;;;;;;;;;16.90;99.90;;;;;;5049719;28;20529;-74
2021/05/13 12:03:57;;;;;;;7.30;4.95;;;17.10;99.90;;;;;;5049269;28;20257;-75
2021/05/13 12:06:24;;;;;;;7.88;4.80;;;17.00;99.90;;;;;;5049147;28;20029;-74
2021/05/13 12:08:49;;;;;;;5.95;4.28;;;16.80;99.90;;;;;;5049217;28;20482;-75
2021/05/13 12:11:20;;;;;;;6.72;4.68;;;16.70;99.90;;;;;;5049489;28;20021;-74
2021/05/13 12:13:47;;;;;;;6.30;4.60;;;16.70;99.90;;;;;;5049119;28;20387;-74
2021/05/13 12:16:13;;;;;;;7.90;4.65;;;16.50;99.90;;;;;;5049074;28;20035;-73
2021/05/13 12:18:42;;;;;;;5.45;4.55;;;16.40;99.90;;;;;;5049375;28;20033;-73
2021/05/13 12:21:08;;;;;;;5.43;4.13;;;16.40;99.90;;;;;;5049222;28;20051;-74
2021/05/13 12:23:34;;;;;;;5.50;4.28;;;16.40;99.90;;;;;;5049305;28;20029;-74
2021/05/13 12:26:00;;;;;;;5.72;4.75;;;16.40;99.90;;;;;;5048123;28;20025;-74
2021/05/13 12:28:26;;;;;;;5.35;4.10;;;16.30;99.90;;;;;;5049305;28;20052;-74
2021/05/13 12:30:56;;;;;;;7.13;4.85;;;16.20;99.90;;;;;;5048026;28;20025;-75
2021/05/13 12:33:21;;;;;;;5.05;3.90;;;16.20;99.90;;;;;;5049535;28;20078;-74
2021/05/13 12:35:52;;;;;;;6.00;4.38;;;16.20;99.90;;;;;;5049650;28;20494;-75
2021/05/13 12:38:22;;;;;;;6.90;4.72;;;16.40;99.90;;;;;;5049368;28;20036;-75
2021/05/13 12:40:49;;;;;;;7.07;4.28;;;16.40;99.90;;;;;;5049900;28;20017;-75
2021/05/13 12:43:17;;;;;;;6.45;5.00;;;16.30;99.90;;;;;;5049592;28;20435;-74
2021/05/13 12:45:43;;;;;;;6.45;4.88;;;16.20;99.90;;;;;;5049101;28;20017;-74
2021/05/13 12:48:09;;;;;;;6.45;4.53;;;16.00;99.90;;;;;;5047435;28;20025;-74
2021/05/13 12:50:35;;;;;;;5.20;4.30;;;16.10;99.90;;;;;;5047633;28;20024;-74
2021/05/13 12:53:12;;;;;;;7.22;4.68;;;16.20;99.90;;;;;;5048968;28;20100;-74
2021/05/13 12:55:39;;;;;;;5.78;4.68;;;16.10;99.90;;;;;;5048901;28;20096;-74
2021/05/13 12:58:16;;;;;;;6.80;4.78;;;16.10;99.90;;;;;;5048582;28;20512;-73